Time;durP1;ratioP1;P1;durP2;ratioP2;P2;SDS_P1;SDS_P2;PMS_P1;PMS_P2;Temp;Humidity;BMP_temperature;BMP_pressure;BME280_temperature;BME280_humidity;BME280_pressure;Samples;Min_cycle;Max_cycle;Signal;HPM_P1;HPM_P2
2022/05/04 00:01:16;;;;;;;;;;;8.30;68.30;;;;;;6130167;23;19951;-75
2022/05/04 00:03:42;;;;;;;;;;;8.20;68.40;;;;;;6130525;23;20374;-74
2022/05/04 00:06:08;;;;;;;;;;;8.30;68.40;;;;;;6106244;23;20220;-75
2022/05/04 00:08:33;;;;;;;;;;;8.20;67.60;;;;;;6130739;23;19989;-75
2022/05/04 00:11:00;;;;;;;;;;;8.30;67.50;;;;;;6129600;23;19994;-74
2022/05/04 00:13:25;;;;;;;;;;;8.20;67.30;;;;;;6104498;23;20339;-74
2022/05/04 00:15:51;;;;;;;;;;;8.30;67.60;;;;;;6105582;23;19923;-77
2022/05/04 00:18:17;;;;;;;;;;;8.40;67.70;;;;;;6106167;23;19918;-74
2022/05/04 00:20:43;;;;;;;;;;;8.20;67.20;;;;;;6129598;23;20315;-75
2022/05/04 00:23:08;;;;;;;;;;;8.30;67.00;;;;;;6105730;23;19924;-76
2022/05/04 00:25:34;;;;;;;;;;;8.30;67.50;;;;;;6105689;23;19914;-75
2022/05/04 00:28:02;;;;;;;;;;;8.20;67.90;;;;;;6128928;23;19918;-74
2022/05/04 00:30:31;;;;;;;;;;;8.40;67.20;;;;;;6129650;23;19913;-74
2022/05/04 00:32:57;;;;;;;;;;;8.20;67.20;;;;;;6106116;23;20212;-76
2022/05/04 00:35:23;;;;;;;;;;;8.20;67.20;;;;;;6106222;23;19924;-76
2022/05/04 00:37:49;;;;;;;;;;;8.20;67.00;;;;;;6105611;23;19948;-75
2022/05/04 00:40:15;;;;;;;;;;;8.20;64.70;;;;;;6105607;23;19924;-75
2022/05/04 00:42:40;;;;;;;;;;;8.20;64.40;;;;;;6130140;23;19916;-74
2022/05/04 00:45:09;;;;;;;;;;;8.20;65.00;;;;;;6130273;23;19920;-74
2022/05/04 00:47:35;;;;;;;;;;;8.20;65.90;;;;;;6130488;23;19924;-75
2022/05/04 00:50:06;;;;;;;;;;;8.20;66.40;;;;;;6106110;23;19917;-74
2022/05/04 00:52:32;;;;;;;;;;;8.20;66.10;;;;;;6106288;23;19924;-75
2022/05/04 00:54:58;;;;;;;;;;;8.20;66.20;;;;;;6132973;23;19939;-72
2022/05/04 01:00:09;;;;;;;;;;;8.20;66.80;;;;;;6131603;23;19999;-74
2022/05/04 01:02:36;;;;;;;;;;;8.10;66.70;;;;;;6129988;23;19917;-77
2022/05/04 01:05:02;;;;;;;;;;;8.10;66.50;;;;;;6106097;23;19917;-75
2022/05/04 01:07:28;;;;;;;;;;;8.10;65.70;;;;;;6130403;23;20419;-75
2022/05/04 01:09:53;;;;;;;;;;;8.00;66.30;;;;;;6130295;23;20267;-75
2022/05/04 01:12:23;;;;;;;;;;;8.00;65.80;;;;;;6106130;23;19927;-75
2022/05/04 01:14:48;;;;;;;;;;;8.10;66.30;;;;;;6105645;23;20377;-75
2022/05/04 01:17:14;;;;;;;;;;;8.00;66.30;;;;;;6105565;23;19999;-74
2022/05/04 01:19:40;;;;;;;;;;;8.00;66.30;;;;;;6130221;23;19916;-75
2022/05/04 01:22:05;;;;;;;;;;;8.00;66.60;;;;;;6130398;23;19916;-74
2022/05/04 01:24:33;;;;;;;;;;;8.00;66.40;;;;;;6129973;23;20243;-76
2022/05/04 01:26:59;;;;;;;;;;;8.10;67.30;;;;;;6105227;23;19967;-75
2022/05/04 01:29:24;;;;;;;;;;;8.10;67.90;;;;;;6130138;23;19920;-75
2022/05/04 01:31:50;;;;;;;;;;;8.10;69.10;;;;;;6130316;23;19923;-75
2022/05/04 01:34:17;;;;;;;;;;;8.10;68.90;;;;;;6105587;23;20319;-74
2022/05/04 01:36:43;;;;;;;;;;;8.10;69.30;;;;;;6105356;23;19916;-76
2022/05/04 01:39:08;;;;;;;;;;;8.10;67.90;;;;;;6105578;23;19977;-75
2022/05/04 01:44:18;;;;;;;;;;;8.10;68.50;;;;;;6130391;23;19991;-74
2022/05/04 01:46:43;;;;;;;;;;;8.00;68.10;;;;;;6105558;23;20271;-75
2022/05/04 01:49:09;;;;;;;;;;;8.10;68.80;;;;;;6105402;23;19970;-75
2022/05/04 01:51:34;;;;;;;;;;;8.10;66.50;;;;;;6106787;23;19927;-76
2022/05/04 01:54:00;;;;;;;;;;;8.10;66.30;;;;;;6130118;23;19917;-76
2022/05/04 01:56:26;;;;;;;;;;;8.00;65.20;;;;;;6107324;23;19916;-74
2022/05/04 01:58:54;;;;;;;;;;;8.00;64.60;;;;;;6107581;23;19917;-76
2022/05/04 02:01:20;;;;;;;;;;;8.00;64.60;;;;;;6107582;23;19912;-74
2022/05/04 02:03:46;;;;;;;;;;;8.10;65.00;;;;;;6107243;23;19917;-73
2022/05/04 02:06:12;;;;;;;;;;;8.00;64.40;;;;;;6158009;23;19916;-74
2022/05/04 02:08:38;;;;;;;;;;;8.10;64.50;;;;;;6131737;23;20007;-74
2022/05/04 02:11:04;;;;;;;;;;;8.10;65.00;;;;;;6130928;23;20275;-75
2022/05/04 02:13:29;;;;;;;;;;;8.00;65.60;;;;;;6131888;23;19917;-77
2022/05/04 02:15:55;;;;;;;;;;;8.10;65.00;;;;;;6132186;23;19928;-75
2022/05/04 02:18:20;;;;;;;;;;;8.00;65.50;;;;;;6107808;23;20196;-75
2022/05/04 02:20:46;;;;;;;;;;;8.00;65.50;;;;;;6137951;23;19991;-71
2022/05/04 02:23:12;;;;;;;;;;;8.10;66.10;;;;;;6145262;23;19917;-71
2022/05/04 02:25:37;;;;;;;;;;;8.00;66.70;;;;;;6134162;23;19947;-75
2022/05/04 02:28:03;;;;;;;;;;;8.20;67.20;;;;;;6159219;23;19916;-74
2022/05/04 02:30:29;;;;;;;;;;;8.00;66.80;;;;;;6133564;23;19928;-74
2022/05/04 02:32:55;;;;;;;;;;;8.00;67.20;;;;;;6107350;23;19971;-75
2022/05/04 02:38:04;;;;;;;;;;;8.00;67.70;;;;;;6130904;23;19948;-76
2022/05/04 02:40:30;;;;;;;;;;;8.00;67.30;;;;;;6106780;23;20205;-76
2022/05/04 02:42:56;;;;;;;;;;;8.00;67.70;;;;;;6131056;23;19971;-75
2022/05/04 02:45:21;;;;;;;;;;;8.00;67.80;;;;;;6130848;23;19917;-75
2022/05/04 02:47:47;;;;;;;;;;;8.00;68.30;;;;;;6106625;23;19916;-74
2022/05/04 02:50:12;;;;;;;;;;;8.10;67.40;;;;;;6106974;23;20275;-74
2022/05/04 02:52:38;;;;;;;;;;;7.90;67.30;;;;;;6131532;23;19916;-75
2022/05/04 02:55:04;;;;;;;;;;;7.90;66.80;;;;;;6131336;23;19924;-75
2022/05/04 02:57:30;;;;;;;;;;;7.90;67.80;;;;;;6106925;23;19967;-74
2022/05/04 02:59:55;;;;;;;;;;;8.00;67.20;;;;;;6131086;23;19980;-76
2022/05/04 03:02:27;;;;;;;;;;;7.90;66.70;;;;;;6130797;23;19924;-75
2022/05/04 03:05:00;;;;;;;;;;;7.90;68.10;;;;;;6106958;23;19917;-76
2022/05/04 03:07:26;;;;;;;;;;;8.00;70.20;;;;;;6107046;23;19995;-76
2022/05/04 03:09:52;;;;;;;;;;;7.90;70.90;;;;;;6106423;23;19917;-76
2022/05/04 03:12:20;;;;;;;;;;;7.90;70.80;;;;;;6106715;23;19982;-75
2022/05/04 03:14:46;;;;;;;;;;;7.90;72.00;;;;;;6106593;23;19939;-76
2022/05/04 03:17:11;;;;;;;;;;;8.00;71.50;;;;;;6131001;23;19916;-77
2022/05/04 03:19:37;;;;;;;;;;;7.90;71.40;;;;;;6131215;23;19924;-75
2022/05/04 03:22:03;;;;;;;;;;;7.90;71.50;;;;;;6106791;23;20271;-75
2022/05/04 03:24:28;;;;;;;;;;;7.90;70.80;;;;;;6131234;23;19992;-74
2022/05/04 03:26:54;;;;;;;;;;;7.90;71.50;;;;;;6131197;23;19963;-75
2022/05/04 03:29:20;;;;;;;;;;;8.00;70.60;;;;;;6130753;23;19976;-74
2022/05/04 03:31:45;;;;;;;;;;;7.90;70.90;;;;;;6106721;23;19920;-75
2022/05/04 03:34:14;;;;;;;;;;;7.90;69.10;;;;;;6106698;23;20385;-74
2022/05/04 03:36:44;;;;;;;;;;;8.00;70.00;;;;;;6130853;23;19916;-75
2022/05/04 03:39:10;;;;;;;;;;;7.90;70.10;;;;;;6110807;23;20263;-72
2022/05/04 03:41:36;;;;;;;;;;;7.90;69.60;;;;;;6137963;23;19916;-76
2022/05/04 03:44:01;;;;;;;;;;;7.90;68.70;;;;;;6115008;23;19991;-72
2022/05/04 03:46:28;;;;;;;;;;;7.90;67.20;;;;;;6133877;23;19916;-75
2022/05/04 03:48:58;;;;;;;;;;;7.90;68.50;;;;;;6129613;23;19916;-75
2022/05/04 03:51:24;;;;;;;;;;;7.90;67.90;;;;;;6106062;23;20212;-75
2022/05/04 03:53:51;;;;;;;;;;;7.90;67.70;;;;;;6106150;23;19971;-76
2022/05/04 03:56:17;;;;;;;;;;;8.00;67.80;;;;;;6106014;23;19947;-73
2022/05/04 03:58:43;;;;;;;;;;;7.90;68.50;;;;;;6106219;23;19979;-76
2022/05/04 04:01:08;;;;;;;;;;;7.90;69.20;;;;;;6106318;23;19917;-74
2022/05/04 04:03:34;;;;;;;;;;;7.90;70.50;;;;;;6106299;23;19939;-75
2022/05/04 04:06:01;;;;;;;;;;;8.00;68.90;;;;;;6130875;23;19917;-77
2022/05/04 04:08:27;;;;;;;;;;;7.90;69.40;;;;;;6105744;23;19967;-76
2022/05/04 04:10:57;;;;;;;;;;;7.80;70.50;;;;;;6130433;23;20323;-75
2022/05/04 04:13:23;;;;;;;;;;;7.90;71.30;;;;;;6105824;23;20402;-75
2022/05/04 04:15:51;;;;;;;;;;;7.90;71.20;;;;;;6106046;23;19920;-74
2022/05/04 04:18:21;;;;;;;;;;;7.90;71.10;;;;;;6105666;23;19913;-79
2022/05/04 04:23:43;;;;;;;;;;;7.90;70.50;;;;;;6130814;23;19974;-79
2022/05/04 04:26:09;;;;;;;;;;;7.90;70.40;;;;;;6106445;23;20316;-81
2022/05/04 04:28:36;;;;;;;;;;;7.90;69.90;;;;;;6108324;23;19941;-75
2022/05/04 04:31:02;;;;;;;;;;;8.00;70.90;;;;;;6106824;23;19913;-78
2022/05/04 04:33:29;;;;;;;;;;;8.00;71.20;;;;;;6106099;23;19963;-79
2022/05/04 04:35:58;;;;;;;;;;;8.00;72.40;;;;;;6106649;23;20351;-72
2022/05/04 04:38:24;;;;;;;;;;;7.90;71.50;;;;;;6105559;23;19938;-79
2022/05/04 04:40:50;;;;;;;;;;;8.00;70.60;;;;;;6106551;23;20256;-80
2022/05/04 04:43:16;;;;;;;;;;;8.00;70.40;;;;;;6105971;23;19999;-80
2022/05/04 04:45:45;;;;;;;;;;;8.00;69.80;;;;;;6130996;23;19919;-79
2022/05/04 04:48:11;;;;;;;;;;;8.00;69.00;;;;;;6130924;23;19917;-78
2022/05/04 04:50:37;;;;;;;;;;;8.10;68.40;;;;;;6148576;23;19913;-77
2022/05/04 04:53:02;;;;;;;;;;;8.10;66.40;;;;;;6128290;23;19920;-73
2022/05/04 04:55:28;;;;;;;;;;;8.10;66.60;;;;;;6132747;23;19908;-74
2022/05/04 04:57:54;;;;;;;;;;;8.10;67.10;;;;;;6135038;23;19912;-81
2022/05/04 05:00:20;;;;;;;;;;;8.10;65.60;;;;;;6108371;23;19912;-79
2022/05/04 05:02:46;;;;;;;;;;;8.10;65.80;;;;;;6106766;23;20274;-79
2022/05/04 05:05:12;;;;;;;;;;;8.20;65.40;;;;;;6106377;23;19948;-79
2022/05/04 05:07:38;;;;;;;;;;;8.20;65.80;;;;;;6129807;23;19944;-80
2022/05/04 05:10:05;;;;;;;;;;;8.20;65.40;;;;;;6129907;23;20007;-80
2022/05/04 05:12:31;;;;;;;;;;;8.20;65.50;;;;;;6105787;23;19991;-81
2022/05/04 05:17:40;;;;;;;;;;;8.30;65.20;;;;;;6130179;23;20236;-78
2022/05/04 05:20:06;;;;;;;;;;;8.30;65.10;;;;;;6105796;23;19924;-79
2022/05/04 05:22:32;;;;;;;;;;;8.30;66.70;;;;;;6105690;23;19916;-78
2022/05/04 05:24:58;;;;;;;;;;;8.50;66.50;;;;;;6130399;23;20003;-81
2022/05/04 05:27:24;;;;;;;;;;;8.50;67.20;;;;;;6132135;23;20226;-80
2022/05/04 05:29:49;;;;;;;;;;;8.50;67.50;;;;;;6108011;23;19913;-79
2022/05/04 05:32:15;;;;;;;;;;;8.60;66.40;;;;;;6131878;23;19948;-80
2022/05/04 05:34:41;;;;;;;;;;;8.60;67.20;;;;;;6131977;23;20235;-81
2022/05/04 05:37:07;;;;;;;;;;;8.60;65.20;;;;;;6107771;23;19913;-80
2022/05/04 05:39:33;;;;;;;;;;;8.70;65.30;;;;;;6133915;23;19917;-79
2022/05/04 05:42:01;;;;;;;;;;;8.70;65.40;;;;;;6107563;23;19917;-79
2022/05/04 05:44:27;;;;;;;;;;;8.70;64.80;;;;;;6107608;23;19987;-80
2022/05/04 05:46:52;;;;;;;;;;;8.70;64.80;;;;;;6108303;23;20323;-78
2022/05/04 05:49:18;;;;;;;;;;;8.80;65.40;;;;;;6109347;23;20308;-78
2022/05/04 05:51:43;;;;;;;;;;;8.70;66.00;;;;;;6116049;23;19961;-79
2022/05/04 05:54:09;;;;;;;;;;;8.70;64.90;;;;;;6114619;23;19917;-79
2022/05/04 05:56:35;;;;;;;;;;;8.80;63.40;;;;;;6108724;23;19943;-79
2022/05/04 05:59:04;;;;;;;;;;;8.80;64.10;;;;;;6132461;23;19923;-79
2022/05/04 06:01:32;;;;;;;;;;;8.90;62.70;;;;;;6112549;23;19957;-78
2022/05/04 06:04:00;;;;;;;;;;;8.90;61.70;;;;;;6148395;23;19913;-77
2022/05/04 06:06:26;;;;;;;;;;;8.90;62.80;;;;;;6156316;23;19952;-74
2022/05/04 06:08:52;;;;;;;;;;;8.90;62.20;;;;;;6128247;23;19939;-80
2022/05/04 06:11:18;;;;;;;;;;;9.00;61.20;;;;;;6107478;23;19984;-80
2022/05/04 06:13:50;;;;;;;;;;;9.00;61.90;;;;;;6107751;23;19912;-80
2022/05/04 06:16:16;;;;;;;;;;;9.10;62.10;;;;;;6107721;23;19912;-78
2022/05/04 06:18:42;;;;;;;;;;;9.10;61.90;;;;;;6107142;23;19920;-80
2022/05/04 06:21:07;;;;;;;;;;;9.10;61.70;;;;;;6107483;23;19951;-81
2022/05/04 06:23:33;;;;;;;;;;;9.20;61.00;;;;;;6107384;23;20227;-79
2022/05/04 06:25:59;;;;;;;;;;;9.20;60.10;;;;;;6107255;23;19913;-81
2022/05/04 06:28:27;;;;;;;;;;;9.30;60.00;;;;;;6132183;23;20390;-80
2022/05/04 06:36:22;;;;;;;;;;;9.30;59.20;;;;;;6160018;23;19928;-79
2022/05/04 06:38:47;;;;;;;;;;;9.50;59.40;;;;;;6135159;23;19912;-79
2022/05/04 06:41:14;;;;;;;;;;;9.50;60.80;;;;;;6118063;23;20011;-78
2022/05/04 06:43:40;;;;;;;;;;;9.70;59.90;;;;;;6107057;23;19916;-80
2022/05/04 06:46:05;;;;;;;;;;;9.80;59.80;;;;;;6107914;23;19916;-80
2022/05/04 06:48:34;;;;;;;;;;;10.00;59.20;;;;;;6134954;23;19913;-80
2022/05/04 06:51:02;;;;;;;;;;;10.00;58.50;;;;;;6108160;23;19913;-80
2022/05/04 06:53:28;;;;;;;;;;;9.90;58.50;;;;;;6107599;23;19986;-79
2022/05/04 06:55:54;;;;;;;;;;;9.90;58.50;;;;;;6107169;23;19917;-78
2022/05/04 06:58:20;;;;;;;;;;;10.10;60.30;;;;;;6131115;23;20320;-79
2022/05/04 07:00:48;;;;;;;;;;;10.20;59.70;;;;;;6131619;23;19995;-80
2022/05/04 07:03:14;;;;;;;;;;;10.20;57.90;;;;;;6131435;23;19912;-78
2022/05/04 07:05:40;;;;;;;;;;;10.30;57.80;;;;;;6106792;23;19996;-80
2022/05/04 07:08:06;;;;;;;;;;;10.40;57.30;;;;;;6106422;23;19923;-78
2022/05/04 07:10:31;;;;;;;;;;;10.40;57.90;;;;;;6107090;23;19912;-79
2022/05/04 07:12:57;;;;;;;;;;;10.40;57.80;;;;;;6106699;23;19912;-80
2022/05/04 07:15:23;;;;;;;;;;;10.30;57.70;;;;;;6107046;23;19913;-81
2022/05/04 07:17:51;;;;;;;;;;;10.40;57.50;;;;;;6125009;23;19971;-78
2022/05/04 07:20:17;;;;;;;;;;;10.50;58.30;;;;;;6151259;23;19952;-80
2022/05/04 07:22:43;;;;;;;;;;;10.60;58.10;;;;;;6134345;23;19913;-74
2022/05/04 07:25:09;;;;;;;;;;;10.70;57.30;;;;;;6157799;23;19961;-80
2022/05/04 07:27:34;;;;;;;;;;;10.80;57.30;;;;;;6107018;23;19959;-79
2022/05/04 07:30:02;;;;;;;;;;;10.80;56.70;;;;;;6106889;23;19913;-80
2022/05/04 07:32:28;;;;;;;;;;;10.90;58.40;;;;;;6107569;23;19913;-80
2022/05/04 07:34:54;;;;;;;;;;;10.90;56.00;;;;;;6131753;23;19959;-80
2022/05/04 07:37:19;;;;;;;;;;;10.90;57.20;;;;;;6106973;23;19975;-79
2022/05/04 07:42:34;;;;;;;;;;;11.00;55.90;;;;;;6077066;23;20316;-80
2022/05/04 07:45:04;;;;;;;;;;;11.00;56.40;;;;;;6106244;23;19920;-79
2022/05/04 07:47:34;;;;;;;;;;;11.10;57.00;;;;;;6131906;23;19913;-80
2022/05/04 07:50:00;;;;;;;;;;;11.20;56.40;;;;;;6131379;23;19959;-80
2022/05/04 07:52:26;;;;;;;;;;;11.20;56.30;;;;;;6132263;23;19943;-79
2022/05/04 07:54:52;;;;;;;;;;;11.20;55.70;;;;;;6107150;23;19917;-81
2022/05/04 07:57:19;;;;;;;;;;;11.20;55.90;;;;;;6132064;23;19912;-80
2022/05/04 08:05:30;;;;;;;;;;;11.10;55.90;;;;;;6132075;23;19919;-78
2022/05/04 08:07:56;;;;;;;;;;;11.30;57.00;;;;;;6106943;23;19912;-78
2022/05/04 08:10:21;;;;;;;;;;;11.40;56.60;;;;;;6107177;23;19916;-79
2022/05/04 08:13:03;;;;;;;;;;;11.50;55.10;;;;;;6106993;23;19912;-76
2022/05/04 08:22:41;;;;;;;;;;;11.90;55.40;;;;;;6051859;23;19936;-78
2022/05/04 08:25:07;;;;;;;;;;;11.90;55.00;;;;;;6130671;23;19913;-77
2022/05/04 08:27:33;;;;;;;;;;;12.00;55.40;;;;;;6106914;23;20394;-79
2022/05/04 08:30:00;;;;;;;;;;;12.00;54.40;;;;;;6106532;23;19917;-78
2022/05/04 08:32:27;;;;;;;;;;;12.00;52.70;;;;;;6130916;23;19913;-78
2022/05/04 08:34:52;;;;;;;;;;;12.00;53.60;;;;;;6106752;23;19944;-78
2022/05/04 08:37:18;;;;;;;;;;;11.80;52.90;;;;;;6106730;23;19917;-77
2022/05/04 08:39:43;;;;;;;;;;;11.80;53.80;;;;;;6130801;23;19994;-79
2022/05/04 08:42:09;;;;;;;;;;;11.80;53.20;;;;;;6155889;23;19992;-79
2022/05/04 08:44:35;;;;;;;;;;;11.90;52.70;;;;;;6106495;23;19923;-79
2022/05/04 08:47:02;;;;;;;;;;;11.90;53.10;;;;;;6106894;23;19912;-78
2022/05/04 08:49:30;;;;;;;;;;;11.90;52.90;;;;;;6106855;23;19923;-77
2022/05/04 08:51:57;;;;;;;;;;;12.10;53.50;;;;;;6106815;23;20203;-78
2022/05/04 08:54:23;;;;;;;;;;;12.30;53.20;;;;;;6106734;23;19983;-79
2022/05/04 08:56:49;;;;;;;;;;;12.60;54.00;;;;;;6106720;23;20308;-78
2022/05/04 08:59:16;;;;;;;;;;;12.90;53.50;;;;;;6130901;23;19921;-80
2022/05/04 09:01:41;;;;;;;;;;;12.90;52.30;;;;;;6107982;23;19916;-79
2022/05/04 09:04:07;;;;;;;;;;;13.00;52.30;;;;;;6133125;23;19913;-77
2022/05/04 09:06:36;;;;;;;;;;;12.80;51.70;;;;;;6143435;23;19912;-73
2022/05/04 09:09:03;;;;;;;;;;;12.90;52.10;;;;;;6125499;23;19913;-73
2022/05/04 09:11:29;;;;;;;;;;;12.90;51.70;;;;;;6115924;23;19951;-77
2022/05/04 09:13:55;;;;;;;;;;;12.90;52.90;;;;;;6134843;23;19912;-77
2022/05/04 09:16:28;;;;;;;;;;;12.90;51.90;;;;;;6134078;23;19987;-77
2022/05/04 09:18:53;;;;;;;;;;;12.80;52.40;;;;;;6108439;23;19912;-77
2022/05/04 09:21:22;;;;;;;;;;;12.80;51.50;;;;;;6108363;23;20032;-78
2022/05/04 09:23:54;;;;;;;;;;;12.80;52.10;;;;;;6133235;23;19917;-78
2022/05/04 09:26:20;;;;;;;;;;;12.90;51.60;;;;;;6108691;23;20366;-77
2022/05/04 09:28:50;;;;;;;;;;;13.40;50.40;;;;;;6108519;23;19912;-78
2022/05/04 09:31:18;;;;;;;;;;;13.40;49.90;;;;;;6118399;23;19987;-75
2022/05/04 09:33:51;;;;;;;;;;;13.40;49.40;;;;;;6157526;23;19912;-73
2022/05/04 09:36:34;;;;;;;;;;;13.20;49.10;;;;;;6133347;23;19983;-76
2022/05/04 09:44:55;;;;;;;;;;;13.50;50.30;;;;;;6097815;23;19925;-77
2022/05/04 09:47:21;;;;;;;;;;;14.10;49.80;;;;;;6111741;23;19912;-78
2022/05/04 09:49:48;;;;;;;;;;;14.30;50.10;;;;;;6133001;23;20231;-77
2022/05/04 09:52:14;;;;;;;;;;;14.50;49.70;;;;;;6108036;23;19919;-76
2022/05/04 09:54:40;;;;;;;;;;;14.60;49.10;;;;;;6108507;23;19912;-77
2022/05/04 09:57:07;;;;;;;;;;;14.50;48.90;;;;;;6133013;23;20329;-80
2022/05/04 09:59:36;;;;;;;;;;;14.50;48.70;;;;;;6132607;23;19919;-76
2022/05/04 10:02:04;;;;;;;;;;;14.30;47.80;;;;;;6108242;23;19912;-77
2022/05/04 10:04:33;;;;;;;;;;;14.00;47.90;;;;;;6107896;23;19991;-77
2022/05/04 10:07:00;;;;;;;;;;;13.60;49.60;;;;;;6108349;23;19991;-76
2022/05/04 10:09:26;;;;;;;;;;;13.50;50.30;;;;;;6132120;23;20331;-76
2022/05/04 10:11:57;;;;;;;;;;;13.50;50.00;;;;;;6108006;23;19967;-75
2022/05/04 10:14:23;;;;;;;;;;;13.40;49.70;;;;;;6132042;23;19913;-72
2022/05/04 10:16:52;;;;;;;;;;;13.30;50.70;;;;;;6131983;23;19912;-75
2022/05/04 10:19:29;;;;;;;;;;;13.30;50.80;;;;;;6107375;23;19954;-74
2022/05/04 10:21:59;;;;;;;;;;;13.50;50.00;;;;;;6107937;23;19974;-82
2022/05/04 10:24:27;;;;;;;;;;;13.70;50.00;;;;;;6132654;23;19928;-81
2022/05/04 10:27:00;;;;;;;;;;;14.10;48.40;;;;;;6108053;23;19912;-79
2022/05/04 10:32:27;;;;;;;;;;;14.40;47.80;;;;;;6132506;23;19913;-77
2022/05/04 10:35:11;;;;;;;;;;;14.70;49.10;;;;;;6110476;23;19944;-81
2022/05/04 10:38:07;;;;;;;;;;;14.80;48.00;;;;;;6117638;23;20356;-72
2022/05/04 10:40:35;;;;;;;;;;;14.40;47.60;;;;;;6148481;23;20312;-71
2022/05/04 10:43:04;;;;;;;;;;;13.60;49.20;;;;;;6134107;23;19923;-77
2022/05/04 10:45:31;;;;;;;;;;;13.40;50.30;;;;;;6131851;23;19920;-76
2022/05/04 10:48:12;;;;;;;;;;;13.00;51.40;;;;;;6132105;23;19916;-77
2022/05/04 10:50:51;;;;;;;;;;;13.10;53.00;;;;;;6132442;23;19916;-78
2022/05/04 10:53:21;;;;;;;;;;;13.20;51.80;;;;;;6107369;23;19919;-77
2022/05/04 10:56:01;;;;;;;;;;;13.40;51.20;;;;;;6131820;23;20231;-77
2022/05/04 10:58:34;;;;;;;;;;;13.70;52.00;;;;;;6107231;23;19963;-77
2022/05/04 11:01:25;;;;;;;;;;;14.10;49.90;;;;;;6107033;23;19935;-77
2022/05/04 11:03:57;;;;;;;;;;;13.90;49.60;;;;;;6107528;23;19924;-79
2022/05/04 11:06:22;;;;;;;;;;;13.80;49.60;;;;;;6131992;23;19923;-78
2022/05/04 11:08:48;;;;;;;;;;;13.90;50.60;;;;;;6131675;23;19951;-77
2022/05/04 11:11:14;;;;;;;;;;;14.00;50.00;;;;;;6107366;23;19917;-77
2022/05/04 11:13:43;;;;;;;;;;;14.30;49.00;;;;;;6131429;23;19920;-78
2022/05/04 11:16:09;;;;;;;;;;;14.20;49.30;;;;;;6107218;23;19913;-77
2022/05/04 11:18:35;;;;;;;;;;;14.10;49.40;;;;;;6107257;23;19917;-79
2022/05/04 11:21:05;;;;;;;;;;;13.60;50.70;;;;;;6131466;23;19976;-77
2022/05/04 11:23:31;;;;;;;;;;;13.70;50.90;;;;;;6106739;23;19919;-78
2022/05/04 11:25:56;;;;;;;;;;;13.90;51.40;;;;;;6107028;23;19916;-78
2022/05/04 11:28:23;;;;;;;;;;;14.20;51.00;;;;;;6131814;23;19912;-79
2022/05/04 11:30:49;;;;;;;;;;;14.40;50.50;;;;;;6131333;23;19912;-76
2022/05/04 11:33:17;;;;;;;;;;;14.60;50.90;;;;;;6131355;23;20346;-77
2022/05/04 11:35:43;;;;;;;;;;;14.80;49.90;;;;;;6131921;23;19913;-77
2022/05/04 11:38:18;;;;;;;;;;;14.90;49.40;;;;;;6106613;23;19979;-78
2022/05/04 11:40:46;;;;;;;;;;;15.10;50.00;;;;;;6131606;23;20072;-78
2022/05/04 11:43:33;;;;;;;;;;;15.40;48.70;;;;;;6131728;23;19923;-78
2022/05/04 11:46:03;;;;;;;;;;;15.60;48.70;;;;;;6131171;23;19917;-77
2022/05/04 11:48:30;;;;;;;;;;;15.70;47.50;;;;;;6106874;23;20312;-80
2022/05/04 11:50:56;;;;;;;;;;;15.80;46.80;;;;;;6131081;23;19963;-80
2022/05/04 11:53:21;;;;;;;;;;;15.80;47.10;;;;;;6106590;23;19916;-78
2022/05/04 11:55:47;;;;;;;;;;;15.50;46.70;;;;;;6107027;23;19912;-80
2022/05/04 11:58:15;;;;;;;;;;;15.30;48.20;;;;;;6106928;23;19913;-79
2022/05/04 12:00:41;;;;;;;;;;;15.20;48.50;;;;;;6131010;23;19978;-79
2022/05/04 12:03:08;;;;;;;;;;;15.20;48.50;;;;;;6106535;23;19948;-78
2022/05/04 12:05:35;;;;;;;;;;;15.40;48.70;;;;;;6107318;23;19917;-79
2022/05/04 12:08:01;;;;;;;;;;;15.60;47.80;;;;;;6131919;23;19920;-79
2022/05/04 12:10:27;;;;;;;;;;;15.70;46.70;;;;;;6149407;23;19912;-74
2022/05/04 12:12:56;;;;;;;;;;;15.70;48.30;;;;;;6149255;23;19939;-74
2022/05/04 12:15:22;;;;;;;;;;;15.50;47.10;;;;;;6108732;23;20312;-80
2022/05/04 12:17:47;;;;;;;;;;;15.80;49.10;;;;;;6106416;23;19935;-77
2022/05/04 12:20:13;;;;;;;;;;;16.00;46.50;;;;;;6106679;23;19946;-79
2022/05/04 12:22:39;;;;;;;;;;;16.00;47.40;;;;;;6130085;23;20266;-77
2022/05/04 12:25:05;;;;;;;;;;;15.80;46.60;;;;;;6130987;23;20332;-80
2022/05/04 12:27:31;;;;;;;;;;;15.40;47.50;;;;;;6107186;23;19913;-76
2022/05/04 12:35:28;;;;;;;;;;;15.90;47.60;;;;;;6131333;23;20231;-78
2022/05/04 12:37:55;;;;;;;;;;;16.10;47.50;;;;;;6131492;23;19946;-79
2022/05/04 12:40:23;;;;;;;;;;;16.20;47.80;;;;;;6130949;23;19913;-79
2022/05/04 12:42:49;;;;;;;;;;;16.20;47.90;;;;;;6130769;23;19916;-79
2022/05/04 12:45:15;;;;;;;;;;;16.30;47.50;;;;;;6130735;23;19923;-78
2022/05/04 12:47:41;;;;;;;;;;;16.30;46.60;;;;;;6130557;23;20328;-75
2022/05/04 12:50:07;;;;;;;;;;;16.30;47.50;;;;;;6131137;23;19923;-80
2022/05/04 12:52:36;;;;;;;;;;;16.40;47.30;;;;;;6106656;23;19923;-80
2022/05/04 12:55:01;;;;;;;;;;;16.70;46.70;;;;;;6106490;23;19916;-78
2022/05/04 12:57:27;;;;;;;;;;;16.80;46.50;;;;;;6130844;23;19923;-80
2022/05/04 12:59:53;;;;;;;;;;;16.70;46.20;;;;;;6157018;23;19917;-79
2022/05/04 13:02:19;;;;;;;;;;;16.80;47.80;;;;;;6106289;23;20212;-79
2022/05/04 13:04:44;;;;;;;;;;;16.90;46.80;;;;;;6106378;23;19916;-79
2022/05/04 13:07:10;;;;;;;;;;;17.00;46.20;;;;;;6130588;23;19975;-77
2022/05/04 13:09:36;;;;;;;;;;;16.80;45.10;;;;;;6106185;23;19943;-77
2022/05/04 13:12:02;;;;;;;;;;;17.00;46.20;;;;;;6106933;23;19917;-78
2022/05/04 13:14:28;;;;;;;;;;;17.10;46.20;;;;;;6130605;23;19967;-76
2022/05/04 13:16:53;;;;;;;;;;;17.20;46.30;;;;;;6105965;23;20240;-78
2022/05/04 13:19:19;;;;;;;;;;;17.30;45.00;;;;;;6130607;23;19983;-79
2022/05/04 13:21:45;;;;;;;;;;;17.50;46.00;;;;;;6106259;23;20351;-82
2022/05/04 13:24:10;;;;;;;;;;;17.50;45.00;;;;;;6130736;23;19916;-77
2022/05/04 13:26:36;;;;;;;;;;;17.50;45.60;;;;;;6106354;23;19991;-79
2022/05/04 13:29:02;;;;;;;;;;;17.60;44.90;;;;;;6130485;23;20379;-79
2022/05/04 13:31:28;;;;;;;;;;;17.80;45.20;;;;;;6131010;23;19940;-77
2022/05/04 13:33:54;;;;;;;;;;;17.80;44.70;;;;;;6106649;23;20235;-77
2022/05/04 13:36:20;;;;;;;;;;;17.70;43.20;;;;;;6131219;23;19916;-76
2022/05/04 13:38:47;;;;;;;;;;;17.50;44.10;;;;;;6135166;23;19951;-77
2022/05/04 13:41:13;;;;;;;;;;;17.60;44.60;;;;;;6111090;23;19940;-74
2022/05/04 13:43:38;;;;;;;;;;;17.50;44.80;;;;;;6120398;23;19933;-72
2022/05/04 13:46:04;;;;;;;;;;;17.40;44.10;;;;;;6145631;23;19916;-73
2022/05/04 13:48:30;;;;;;;;;;;17.30;44.70;;;;;;6132780;23;20003;-77
2022/05/04 13:53:42;;;;;;;;;;;17.10;44.40;;;;;;6132407;23;19919;-77
2022/05/04 13:56:08;;;;;;;;;;;16.90;44.10;;;;;;6107829;23;19966;-77
2022/05/04 13:58:33;;;;;;;;;;;17.00;46.00;;;;;;6132297;23;19995;-76
2022/05/04 14:01:00;;;;;;;;;;;17.10;45.70;;;;;;6158776;23;19919;-79
2022/05/04 14:03:25;;;;;;;;;;;17.20;45.90;;;;;;6107615;23;19956;-76
2022/05/04 14:05:51;;;;;;;;;;;17.40;45.30;;;;;;6107382;23;20284;-70
2022/05/04 14:08:17;;;;;;;;;;;17.50;45.20;;;;;;6107873;23;19992;-73
2022/05/04 14:15:01;;;;;;;;;;;17.30;45.90;;;;;;6029473;23;19924;-73
2022/05/04 14:20:19;;;;;;;;;;;17.50;45.40;;;;;;5920434;24;19922;-77
2022/05/04 14:22:45;;;;;;;;;;;17.50;45.70;;;;;;5954532;24;19919;-75
2022/05/04 14:32:15;;;;;;;;;;;16.90;45.00;;;;;;5870582;24;19996;-77
2022/05/04 14:41:20;;;;;;;;;;;16.90;47.50;;;;;;5953248;24;19958;-72
2022/05/04 18:11:35;;;;;;;;;;;11.30;64.90;;;;;;6095965;23;19918;-79
2022/05/04 18:19:14;;;;;;;;;;;;;;;;;;;;;
2022/05/04 18:39:24;;;;;;;;;;;10.50;66.50;;;;;;6072076;23;19957;-80
2022/05/04 18:42:29;;;;;;;;;;;10.40;67.40;;;;;;6043786;23;19918;-85
2022/05/04 18:51:32;;;;;;;;;;;10.00;68.00;;;;;;6081858;23;20256;-76
2022/05/04 18:54:20;;;;;;;;;;;10.00;68.60;;;;;;6031150;23;19921;-87
2022/05/04 18:57:26;;;;;;;;;;;9.90;68.70;;;;;;6037425;23;19936;-81
2022/05/04 19:06:57;;;;;;;;;;;9.90;68.80;;;;;;6201547;22;19942;-76
2022/05/04 19:09:40;;;;;;;;;;;9.60;69.70;;;;;;6167651;23;20318;-76
2022/05/04 19:33:15;;;;;;;;;;;9.30;70.70;;;;;;6182065;23;19916;-76
2022/05/04 19:35:51;;;;;;;;;;;;;;;;;;;;;
2022/05/04 19:42:01;;;;;;;;;;;9.10;71.10;;;;;;6184732;23;20337;-75
2022/05/04 19:44:39;;;;;;;;;;;9.00;70.60;;;;;;6133829;23;19994;-82
2022/05/04 19:50:47;;;;;;;;;;;8.90;72.40;;;;;;6123051;23;20413;-78
2022/05/04 19:53:53;;;;;;;;;;;9.00;72.40;;;;;;6074240;23;20355;-78
2022/05/04 19:56:19;;;;;;;;;;;8.90;71.70;;;;;;6074380;23;20020;-75
2022/05/04 19:59:03;;;;;;;;;;;8.90;73.30;;;;;;6098575;23;19974;-77
2022/05/04 20:01:29;;;;;;;;;;;8.70;72.60;;;;;;6074784;23;19971;-75
2022/05/04 20:04:04;;;;;;;;;;;9.20;73.30;;;;;;6076557;23;20267;-82
2022/05/04 20:06:42;;;;;;;;;;;8.70;72.80;;;;;;6099166;23;19920;-78
2022/05/04 20:09:24;;;;;;;;;;;8.70;72.70;;;;;;6076324;23;19983;-76
2022/05/04 20:12:00;;;;;;;;;;;8.60;73.70;;;;;;6042312;23;19969;-78
2022/05/04 20:14:28;;;;;;;;;;;8.60;74.70;;;;;;6018151;23;19993;-77